sensor_id;sensor_type;location;lat;lon;timestamp;temperature;humidity
71436;SHT31;59251;51.326;12.370;2024-02-15T00:02:21;9.11;99.99
71436;SHT31;59251;51.326;12.370;2024-02-15T00:04:48;9.12;99.99
71436;SHT31;59251;51.326;12.370;2024-02-15T00:07:15;9.14;99.99
71436;SHT31;59251;51.326;12.370;2024-02-15T00:09:43;9.17;99.99
71436;SHT31;59251;51.326;12.370;2024-02-15T00:12:10;9.12;99.99
71436;SHT31;59251;51.326;12.370;2024-02-15T00:14:36;9.19;99.99
71436;SHT31;59251;51.326;12.370;2024-02-15T00:17:04;9.19;99.99
71436;SHT31;59251;51.326;12.370;2024-02-15T00:19:31;9.17;99.99
71436;SHT31;59251;51.326;12.370;2024-02-15T00:21:57;9.19;99.99
71436;SHT31;59251;51.326;12.370;2024-02-15T00:24:25;9.18;99.99
71436;SHT31;59251;51.326;12.370;2024-02-15T00:26:53;9.08;99.99
71436;SHT31;59251;51.326;12.370;2024-02-15T00:29:20;9.08;99.99
71436;SHT31;59251;51.326;12.370;2024-02-15T00:31:46;9.05;99.99
71436;SHT31;59251;51.326;12.370;2024-02-15T00:34:15;9.17;99.99
71436;SHT31;59251;51.326;12.370;2024-02-15T00:36:42;9.15;99.99
71436;SHT31;59251;51.326;12.370;2024-02-15T00:39:10;9.14;99.99
71436;SHT31;59251;51.326;12.370;2024-02-15T00:41:39;9.28;99.99
71436;SHT31;59251;51.326;12.370;2024-02-15T00:44:08;9.14;99.99
71436;SHT31;59251;51.326;12.370;2024-02-15T00:46:36;9.25;99.99
71436;SHT31;59251;51.326;12.370;2024-02-15T00:49:03;9.26;99.99
71436;SHT31;59251;51.326;12.370;2024-02-15T00:51:31;9.19;99.99
71436;SHT31;59251;51.326;12.370;2024-02-15T00:53:58;9.17;99.99
71436;SHT31;59251;51.326;12.370;2024-02-15T00:56:25;9.26;99.99
71436;SHT31;59251;51.326;12.370;2024-02-15T00:58:53;9.12;99.99
71436;SHT31;59251;51.326;12.370;2024-02-15T01:01:21;9.18;99.99
71436;SHT31;59251;51.326;12.370;2024-02-15T01:03:48;9.15;99.99
71436;SHT31;59251;51.326;12.370;2024-02-15T01:06:15;9.15;99.99
71436;SHT31;59251;51.326;12.370;2024-02-15T01:08:42;9.18;99.99
71436;SHT31;59251;51.326;12.370;2024-02-15T01:11:09;9.17;99.99
71436;SHT31;59251;51.326;12.370;2024-02-15T01:13:36;9.12;99.99
71436;SHT31;59251;51.326;12.370;2024-02-15T01:16:03;9.21;99.99
71436;SHT31;59251;51.326;12.370;2024-02-15T01:18:31;9.21;99.99
71436;SHT31;59251;51.326;12.370;2024-02-15T01:20:58;9.19;99.99
71436;SHT31;59251;51.326;12.370;2024-02-15T01:23:25;9.19;99.99
71436;SHT31;59251;51.326;12.370;2024-02-15T01:25:52;9.21;99.99
71436;SHT31;59251;51.326;12.370;2024-02-15T01:28:19;9.19;99.99
71436;SHT31;59251;51.326;12.370;2024-02-15T01:30:45;9.17;99.99
71436;SHT31;59251;51.326;12.370;2024-02-15T01:33:12;9.24;99.99
71436;SHT31;59251;51.326;12.370;2024-02-15T01:35:40;9.17;99.99
71436;SHT31;59251;51.326;12.370;2024-02-15T01:38:07;9.17;99.99
71436;SHT31;59251;51.326;12.370;2024-02-15T01:40:34;9.18;99.99
71436;SHT31;59251;51.326;12.370;2024-02-15T01:43:01;9.22;99.99
71436;SHT31;59251;51.326;12.370;2024-02-15T01:45:28;9.21;99.99
71436;SHT31;59251;51.326;12.370;2024-02-15T01:47:55;9.22;99.99
71436;SHT31;59251;51.326;12.370;2024-02-15T01:50:23;9.28;99.99
71436;SHT31;59251;51.326;12.370;2024-02-15T01:52:54;9.25;99.99
71436;SHT31;59251;51.326;12.370;2024-02-15T01:55:23;9.21;99.99
71436;SHT31;59251;51.326;12.370;2024-02-15T01:57:53;9.21;99.99
71436;SHT31;59251;51.326;12.370;2024-02-15T02:00:21;9.19;99.99
71436;SHT31;59251;51.326;12.370;2024-02-15T02:02:50;9.26;99.99
71436;SHT31;59251;51.326;12.370;2024-02-15T02:05:18;9.28;99.99
71436;SHT31;59251;51.326;12.370;2024-02-15T02:07:45;9.31;99.99
71436;SHT31;59251;51.326;12.370;2024-02-15T02:10:13;9.29;99.99
71436;SHT31;59251;51.326;12.370;2024-02-15T02:12:41;9.28;99.99
71436;SHT31;59251;51.326;12.370;2024-02-15T02:15:08;9.28;99.99
71436;SHT31;59251;51.326;12.370;2024-02-15T02:17:36;9.25;99.99
71436;SHT31;59251;51.326;12.370;2024-02-15T02:20:06;9.26;99.99
71436;SHT31;59251;51.326;12.370;2024-02-15T02:22:34;9.29;99.99
71436;SHT31;59251;51.326;12.370;2024-02-15T02:25:05;9.31;99.99
71436;SHT31;59251;51.326;12.370;2024-02-15T02:27:33;9.28;99.99
71436;SHT31;59251;51.326;12.370;2024-02-15T02:30:03;9.38;99.99
71436;SHT31;59251;51.326;12.370;2024-02-15T02:32:32;9.29;99.99
71436;SHT31;59251;51.326;12.370;2024-02-15T02:35:00;9.31;99.99
71436;SHT31;59251;51.326;12.370;2024-02-15T02:37:27;9.38;99.99
71436;SHT31;59251;51.326;12.370;2024-02-15T02:39:53;9.36;99.99
71436;SHT31;59251;51.326;12.370;2024-02-15T02:42:21;9.35;99.99
71436;SHT31;59251;51.326;12.370;2024-02-15T02:44:48;9.40;99.99
71436;SHT31;59251;51.326;12.370;2024-02-15T02:47:15;9.46;99.99
71436;SHT31;59251;51.326;12.370;2024-02-15T02:49:42;9.38;99.99
71436;SHT31;59251;51.326;12.370;2024-02-15T02:52:09;9.35;99.99
71436;SHT31;59251;51.326;12.370;2024-02-15T02:54:35;9.36;99.99
71436;SHT31;59251;51.326;12.370;2024-02-15T02:57:02;9.40;99.99
71436;SHT31;59251;51.326;12.370;2024-02-15T02:59:33;9.46;99.99
71436;SHT31;59251;51.326;12.370;2024-02-15T03:02:00;9.40;99.99
71436;SHT31;59251;51.326;12.370;2024-02-15T03:04:27;9.43;99.99
71436;SHT31;59251;51.326;12.370;2024-02-15T03:06:53;9.42;99.99
71436;SHT31;59251;51.326;12.370;2024-02-15T03:09:22;9.43;99.99
71436;SHT31;59251;51.326;12.370;2024-02-15T03:11:55;9.42;99.99
71436;SHT31;59251;51.326;12.370;2024-02-15T03:14:22;9.52;99.99
71436;SHT31;59251;51.326;12.370;2024-02-15T03:16:50;9.55;99.99
71436;SHT31;59251;51.326;12.370;2024-02-15T03:19:17;9.53;99.99
71436;SHT31;59251;51.326;12.370;2024-02-15T03:21:43;9.50;99.99
71436;SHT31;59251;51.326;12.370;2024-02-15T03:24:12;9.52;99.99
71436;SHT31;59251;51.326;12.370;2024-02-15T03:26:39;9.53;99.99
71436;SHT31;59251;51.326;12.370;2024-02-15T03:29:07;9.60;99.99
71436;SHT31;59251;51.326;12.370;2024-02-15T03:31:35;9.65;99.99
71436;SHT31;59251;51.326;12.370;2024-02-15T03:34:04;9.57;99.99
71436;SHT31;59251;51.326;12.370;2024-02-15T03:36:31;9.50;99.99
71436;SHT31;59251;51.326;12.370;2024-02-15T03:38:58;9.50;99.99
71436;SHT31;59251;51.326;12.370;2024-02-15T03:41:27;9.49;99.99
71436;SHT31;59251;51.326;12.370;2024-02-15T03:43:58;9.50;99.99
71436;SHT31;59251;51.326;12.370;2024-02-15T03:46:25;9.56;99.99
71436;SHT31;59251;51.326;12.370;2024-02-15T03:48:53;9.50;99.99
71436;SHT31;59251;51.326;12.370;2024-02-15T03:51:21;9.49;99.99
71436;SHT31;59251;51.326;12.370;2024-02-15T03:53:50;9.47;99.99
71436;SHT31;59251;51.326;12.370;2024-02-15T03:56:17;9.49;99.99
71436;SHT31;59251;51.326;12.370;2024-02-15T03:58:44;9.50;99.99
71436;SHT31;59251;51.326;12.370;2024-02-15T04:01:11;9.50;99.99
71436;SHT31;59251;51.326;12.370;2024-02-15T04:03:40;9.43;99.99
71436;SHT31;59251;51.326;12.370;2024-02-15T04:06:07;9.53;99.99
71436;SHT31;59251;51.326;12.370;2024-02-15T04:08:36;9.40;99.99
71436;SHT31;59251;51.326;12.370;2024-02-15T04:11:04;9.43;99.99
71436;SHT31;59251;51.326;12.370;2024-02-15T04:13:33;9.40;99.99
71436;SHT31;59251;51.326;12.370;2024-02-15T04:15:59;9.45;99.99
71436;SHT31;59251;51.326;12.370;2024-02-15T04:18:27;9.40;99.99
71436;SHT31;59251;51.326;12.370;2024-02-15T04:20:58;9.43;99.99
71436;SHT31;59251;51.326;12.370;2024-02-15T04:23:25;9.53;99.99
71436;SHT31;59251;51.326;12.370;2024-02-15T04:25:53;9.47;99.99
71436;SHT31;59251;51.326;12.370;2024-02-15T04:28:20;9.49;99.99
71436;SHT31;59251;51.326;12.370;2024-02-15T04:30:46;9.42;99.99
71436;SHT31;59251;51.326;12.370;2024-02-15T04:33:13;9.49;99.99
71436;SHT31;59251;51.326;12.370;2024-02-15T04:35:41;9.49;99.99
71436;SHT31;59251;51.326;12.370;2024-02-15T04:38:08;9.49;99.99
71436;SHT31;59251;51.326;12.370;2024-02-15T04:40:35;9.49;99.99
71436;SHT31;59251;51.326;12.370;2024-02-15T04:43:04;9.53;99.99
71436;SHT31;59251;51.326;12.370;2024-02-15T04:45:32;9.53;99.99
71436;SHT31;59251;51.326;12.370;2024-02-15T04:47:59;9.52;99.99
71436;SHT31;59251;51.326;12.370;2024-02-15T04:50:27;9.59;99.99
71436;SHT31;59251;51.326;12.370;2024-02-15T04:52:54;9.57;99.99
71436;SHT31;59251;51.326;12.370;2024-02-15T04:55:22;9.52;99.99
71436;SHT31;59251;51.326;12.370;2024-02-15T04:57:48;9.59;99.99
71436;SHT31;59251;51.326;12.370;2024-02-15T05:00:23;9.66;99.99
71436;SHT31;59251;51.326;12.370;2024-02-15T05:02:51;9.65;99.99
71436;SHT31;59251;51.326;12.370;2024-02-15T05:05:19;9.65;99.99
71436;SHT31;59251;51.326;12.370;2024-02-15T05:07:45;9.63;99.99
71436;SHT31;59251;51.326;12.370;2024-02-15T05:10:14;9.63;99.99
71436;SHT31;59251;51.326;12.370;2024-02-15T05:12:41;9.65;99.99
71436;SHT31;59251;51.326;12.370;2024-02-15T05:15:09;9.59;99.99
71436;SHT31;59251;51.326;12.370;2024-02-15T05:17:39;9.56;99.99
71436;SHT31;59251;51.326;12.370;2024-02-15T05:20:08;9.65;99.99
71436;SHT31;59251;51.326;12.370;2024-02-15T05:22:37;9.62;99.99
71436;SHT31;59251;51.326;12.370;2024-02-15T05:25:06;9.59;99.99
71436;SHT31;59251;51.326;12.370;2024-02-15T05:27:33;9.53;99.99
71436;SHT31;59251;51.326;12.370;2024-02-15T05:30:02;9.53;99.99
71436;SHT31;59251;51.326;12.370;2024-02-15T05:32:32;9.57;99.99
71436;SHT31;59251;51.326;12.370;2024-02-15T05:35:01;9.53;99.99
71436;SHT31;59251;51.326;12.370;2024-02-15T05:37:29;9.47;99.99
71436;SHT31;59251;51.326;12.370;2024-02-15T05:39:55;9.47;99.99
71436;SHT31;59251;51.326;12.370;2024-02-15T05:42:22;9.55;99.99
71436;SHT31;59251;51.326;12.370;2024-02-15T05:44:49;9.56;99.99
71436;SHT31;59251;51.326;12.370;2024-02-15T05:47:16;9.47;99.99
71436;SHT31;59251;51.326;12.370;2024-02-15T05:49:43;9.39;99.99
71436;SHT31;59251;51.326;12.370;2024-02-15T05:52:11;9.35;99.99
71436;SHT31;59251;51.326;12.370;2024-02-15T05:54:38;9.32;99.99
71436;SHT31;59251;51.326;12.370;2024-02-15T05:57:07;9.35;99.99
71436;SHT31;59251;51.326;12.370;2024-02-15T05:59:34;9.39;99.99
71436;SHT31;59251;51.326;12.370;2024-02-15T06:02:01;9.39;99.99
71436;SHT31;59251;51.326;12.370;2024-02-15T06:04:28;9.32;99.99
71436;SHT31;59251;51.326;12.370;2024-02-15T06:06:55;9.40;99.99
71436;SHT31;59251;51.326;12.370;2024-02-15T06:09:27;9.42;99.99
71436;SHT31;59251;51.326;12.370;2024-02-15T06:11:56;9.32;99.99
71436;SHT31;59251;51.326;12.370;2024-02-15T06:14:23;9.31;99.99
71436;SHT31;59251;51.326;12.370;2024-02-15T06:16:50;9.22;99.99
71436;SHT31;59251;51.326;12.370;2024-02-15T06:19:17;9.21;99.99
71436;SHT31;59251;51.326;12.370;2024-02-15T06:21:44;9.14;99.99
71436;SHT31;59251;51.326;12.370;2024-02-15T06:24:12;9.12;99.99
71436;SHT31;59251;51.326;12.370;2024-02-15T06:26:41;9.11;99.99
71436;SHT31;59251;51.326;12.370;2024-02-15T06:29:07;9.07;99.99
71436;SHT31;59251;51.326;12.370;2024-02-15T06:31:52;9.10;99.99
71436;SHT31;59251;51.326;12.370;2024-02-15T06:34:36;9.11;99.99
71436;SHT31;59251;51.326;12.370;2024-02-15T06:37:36;9.19;99.99
71436;SHT31;59251;51.326;12.370;2024-02-15T06:40:20;9.17;99.99
71436;SHT31;59251;51.326;12.370;2024-02-15T06:42:49;9.26;99.99
71436;SHT31;59251;51.326;12.370;2024-02-15T06:45:16;9.36;99.99
71436;SHT31;59251;51.326;12.370;2024-02-15T06:47:45;9.34;99.99
71436;SHT31;59251;51.326;12.370;2024-02-15T06:50:12;9.40;99.99
71436;SHT31;59251;51.326;12.370;2024-02-15T06:52:39;9.42;99.99
71436;SHT31;59251;51.326;12.370;2024-02-15T06:55:07;9.39;99.99
71436;SHT31;59251;51.326;12.370;2024-02-15T06:57:34;9.49;99.99
71436;SHT31;59251;51.326;12.370;2024-02-15T07:00:02;9.47;99.99
71436;SHT31;59251;51.326;12.370;2024-02-15T07:02:29;9.59;99.99
71436;SHT31;59251;51.326;12.370;2024-02-15T07:04:55;9.63;99.99
71436;SHT31;59251;51.326;12.370;2024-02-15T07:07:22;9.69;99.99
71436;SHT31;59251;51.326;12.370;2024-02-15T07:09:49;9.79;99.99
71436;SHT31;59251;51.326;12.370;2024-02-15T07:12:16;9.84;99.99
71436;SHT31;59251;51.326;12.370;2024-02-15T07:14:45;9.98;99.99
71436;SHT31;59251;51.326;12.370;2024-02-15T07:17:14;9.98;99.99
71436;SHT31;59251;51.326;12.370;2024-02-15T07:19:42;10.08;99.99
71436;SHT31;59251;51.326;12.370;2024-02-15T07:22:09;10.05;99.99
71436;SHT31;59251;51.326;12.370;2024-02-15T07:24:37;10.05;99.99
71436;SHT31;59251;51.326;12.370;2024-02-15T07:27:04;10.07;99.99
71436;SHT31;59251;51.326;12.370;2024-02-15T07:29:31;10.20;99.99
71436;SHT31;59251;51.326;12.370;2024-02-15T07:31:57;10.22;99.99
71436;SHT31;59251;51.326;12.370;2024-02-15T07:34:28;10.18;99.99
71436;SHT31;59251;51.326;12.370;2024-02-15T07:36:54;10.28;99.84
71436;SHT31;59251;51.326;12.370;2024-02-15T07:39:23;10.44;99.70
71436;SHT31;59251;51.326;12.370;2024-02-15T07:41:50;10.45;99.32
71436;SHT31;59251;51.326;12.370;2024-02-15T07:44:17;10.49;98.93
71436;SHT31;59251;51.326;12.370;2024-02-15T07:46:44;10.48;98.94
71436;SHT31;59251;51.326;12.370;2024-02-15T07:49:12;10.35;99.43
71436;SHT31;59251;51.326;12.370;2024-02-15T07:51:40;10.42;99.28
71436;SHT31;59251;51.326;12.370;2024-02-15T07:54:07;10.45;99.10
71436;SHT31;59251;51.326;12.370;2024-02-15T07:56:33;10.49;99.01
71436;SHT31;59251;51.326;12.370;2024-02-15T07:59:01;10.48;99.15
71436;SHT31;59251;51.326;12.370;2024-02-15T08:01:28;10.53;99.18
71436;SHT31;59251;51.326;12.370;2024-02-15T08:03:56;10.59;98.73
71436;SHT31;59251;51.326;12.370;2024-02-15T08:06:23;10.65;98.69
71436;SHT31;59251;51.326;12.370;2024-02-15T08:08:54;10.75;98.22
71436;SHT31;59251;51.326;12.370;2024-02-15T08:11:21;10.70;98.23
71436;SHT31;59251;51.326;12.370;2024-02-15T08:13:50;10.66;98.46
71436;SHT31;59251;51.326;12.370;2024-02-15T08:16:20;10.72;98.24
71436;SHT31;59251;51.326;12.370;2024-02-15T08:18:48;10.68;98.34
71436;SHT31;59251;51.326;12.370;2024-02-15T08:21:18;10.72;98.15
71436;SHT31;59251;51.326;12.370;2024-02-15T08:23:46;10.86;97.96
71436;SHT31;59251;51.326;12.370;2024-02-15T08:26:14;10.83;97.84
71436;SHT31;59251;51.326;12.370;2024-02-15T08:28:42;10.80;98.07
71436;SHT31;59251;51.326;12.370;2024-02-15T08:31:09;10.93;97.94
71436;SHT31;59251;51.326;12.370;2024-02-15T08:33:36;10.96;97.85
71436;SHT31;59251;51.326;12.370;2024-02-15T08:36:06;11.00;97.88
71436;SHT31;59251;51.326;12.370;2024-02-15T08:38:35;11.09;97.84
71436;SHT31;59251;51.326;12.370;2024-02-15T08:41:03;11.28;97.48
71436;SHT31;59251;51.326;12.370;2024-02-15T08:43:31;11.09;97.51
71436;SHT31;59251;51.326;12.370;2024-02-15T08:45:58;11.07;97.66
71436;SHT31;59251;51.326;12.370;2024-02-15T08:48:26;11.10;97.54
71436;SHT31;59251;51.326;12.370;2024-02-15T08:50:53;11.11;97.51
71436;SHT31;59251;51.326;12.370;2024-02-15T08:53:19;11.21;97.22
71436;SHT31;59251;51.326;12.370;2024-02-15T08:55:47;11.28;96.95
71436;SHT31;59251;51.326;12.370;2024-02-15T08:58:14;11.37;96.93
71436;SHT31;59251;51.326;12.370;2024-02-15T09:00:42;11.42;96.77
71436;SHT31;59251;51.326;12.370;2024-02-15T09:03:10;11.35;97.10
71436;SHT31;59251;51.326;12.370;2024-02-15T09:05:37;11.45;96.48
71436;SHT31;59251;51.326;12.370;2024-02-15T09:08:04;11.52;96.49
71436;SHT31;59251;51.326;12.370;2024-02-15T09:10:31;11.57;96.48
71436;SHT31;59251;51.326;12.370;2024-02-15T09:12:57;11.72;96.03
71436;SHT31;59251;51.326;12.370;2024-02-15T09:15:24;11.86;95.85
71436;SHT31;59251;51.326;12.370;2024-02-15T09:17:52;11.95;95.71
71436;SHT31;59251;51.326;12.370;2024-02-15T09:20:20;11.87;95.37
71436;SHT31;59251;51.326;12.370;2024-02-15T09:22:48;11.92;95.34
71436;SHT31;59251;51.326;12.370;2024-02-15T09:25:15;12.13;94.57
71436;SHT31;59251;51.326;12.370;2024-02-15T09:27:42;12.19;95.03
71436;SHT31;59251;51.326;12.370;2024-02-15T09:30:11;12.33;94.49
71436;SHT31;59251;51.326;12.370;2024-02-15T09:32:39;12.41;93.98
71436;SHT31;59251;51.326;12.370;2024-02-15T09:35:08;12.54;93.46
71436;SHT31;59251;51.326;12.370;2024-02-15T09:37:37;12.61;93.39
71436;SHT31;59251;51.326;12.370;2024-02-15T09:40:08;12.84;93.13
71436;SHT31;59251;51.326;12.370;2024-02-15T09:42:36;12.88;92.65
71436;SHT31;59251;51.326;12.370;2024-02-15T09:45:05;12.71;93.00
71436;SHT31;59251;51.326;12.370;2024-02-15T09:47:35;12.50;94.03
71436;SHT31;59251;51.326;12.370;2024-02-15T09:50:02;12.65;93.56
71436;SHT31;59251;51.326;12.370;2024-02-15T09:52:31;12.68;93.71
71436;SHT31;59251;51.326;12.370;2024-02-15T09:54:59;12.82;92.87
71436;SHT31;59251;51.326;12.370;2024-02-15T09:57:29;12.77;93.21
71436;SHT31;59251;51.326;12.370;2024-02-15T09:59:57;12.82;92.91
71436;SHT31;59251;51.326;12.370;2024-02-15T10:02:24;12.89;92.82
71436;SHT31;59251;51.326;12.370;2024-02-15T10:04:52;13.10;92.77
71436;SHT31;59251;51.326;12.370;2024-02-15T10:07:21;13.08;92.77
71436;SHT31;59251;51.326;12.370;2024-02-15T10:09:49;13.01;93.24
71436;SHT31;59251;51.326;12.370;2024-02-15T10:12:17;13.03;93.58
71436;SHT31;59251;51.326;12.370;2024-02-15T10:14:48;13.19;92.97
71436;SHT31;59251;51.326;12.370;2024-02-15T10:17:18;13.29;92.63
71436;SHT31;59251;51.326;12.370;2024-02-15T10:19:45;13.27;92.45
71436;SHT31;59251;51.326;12.370;2024-02-15T10:22:24;13.44;92.00
71436;SHT31;59251;51.326;12.370;2024-02-15T10:24:52;13.40;92.17
71436;SHT31;59251;51.326;12.370;2024-02-15T10:27:23;13.43;91.93
71436;SHT31;59251;51.326;12.370;2024-02-15T10:29:50;13.42;91.68
71436;SHT31;59251;51.326;12.370;2024-02-15T10:32:18;13.43;92.08
71436;SHT31;59251;51.326;12.370;2024-02-15T10:34:45;13.46;92.28
71436;SHT31;59251;51.326;12.370;2024-02-15T10:37:13;13.51;91.76
71436;SHT31;59251;51.326;12.370;2024-02-15T10:39:42;13.63;91.01
71436;SHT31;59251;51.326;12.370;2024-02-15T10:42:12;13.70;91.11
71436;SHT31;59251;51.326;12.370;2024-02-15T10:44:41;13.43;91.87
71436;SHT31;59251;51.326;12.370;2024-02-15T10:47:08;13.60;91.60
71436;SHT31;59251;51.326;12.370;2024-02-15T10:49:35;13.70;90.92
71436;SHT31;59251;51.326;12.370;2024-02-15T10:52:04;13.67;91.36
71436;SHT31;59251;51.326;12.370;2024-02-15T10:54:41;13.61;91.47
71436;SHT31;59251;51.326;12.370;2024-02-15T10:57:10;13.57;91.80
71436;SHT31;59251;51.326;12.370;2024-02-15T10:59:38;13.67;91.23
71436;SHT31;59251;51.326;12.370;2024-02-15T11:02:26;13.77;91.30
71436;SHT31;59251;51.326;12.370;2024-02-15T11:04:58;13.78;91.07
71436;SHT31;59251;51.326;12.370;2024-02-15T11:07:28;13.78;90.74
71436;SHT31;59251;51.326;12.370;2024-02-15T11:09:55;13.97;90.25
71436;SHT31;59251;51.326;12.370;2024-02-15T11:12:24;13.89;90.38
71436;SHT31;59251;51.326;12.370;2024-02-15T11:14:52;14.06;89.87
71436;SHT31;59251;51.326;12.370;2024-02-15T11:17:46;14.11;89.88
71436;SHT31;59251;51.326;12.370;2024-02-15T11:20:45;14.06;89.99
71436;SHT31;59251;51.326;12.370;2024-02-15T11:23:23;14.08;90.16
71436;SHT31;59251;51.326;12.370;2024-02-15T11:25:50;14.33;89.04
71436;SHT31;59251;51.326;12.370;2024-02-15T11:28:43;14.50;88.62
71436;SHT31;59251;51.326;12.370;2024-02-15T11:31:55;14.45;89.08
71436;SHT31;59251;51.326;12.370;2024-02-15T11:34:44;14.63;88.74
71436;SHT31;59251;51.326;12.370;2024-02-15T11:37:53;14.90;87.77
71436;SHT31;59251;51.326;12.370;2024-02-15T11:40:21;15.08;87.40
71436;SHT31;59251;51.326;12.370;2024-02-15T11:42:49;14.91;87.66
71436;SHT31;59251;51.326;12.370;2024-02-15T11:45:18;15.07;87.15
71436;SHT31;59251;51.326;12.370;2024-02-15T11:47:48;15.15;86.92
71436;SHT31;59251;51.326;12.370;2024-02-15T11:50:16;14.91;87.52
71436;SHT31;59251;51.326;12.370;2024-02-15T11:52:44;15.20;86.31
71436;SHT31;59251;51.326;12.370;2024-02-15T11:55:12;15.29;85.94
71436;SHT31;59251;51.326;12.370;2024-02-15T11:57:39;15.66;85.41
71436;SHT31;59251;51.326;12.370;2024-02-15T12:00:22;15.90;84.37
71436;SHT31;59251;51.326;12.370;2024-02-15T12:03:07;16.10;83.58
71436;SHT31;59251;51.326;12.370;2024-02-15T12:05:51;15.73;84.39
71436;SHT31;59251;51.326;12.370;2024-02-15T12:08:35;15.76;84.97
71436;SHT31;59251;51.326;12.370;2024-02-15T12:11:20;15.86;84.31
71436;SHT31;59251;51.326;12.370;2024-02-15T12:14:04;15.46;85.42
71436;SHT31;59251;51.326;12.370;2024-02-15T12:17:02;15.35;84.51
71436;SHT31;59251;51.326;12.370;2024-02-15T12:19:48;14.97;85.26
71436;SHT31;59251;51.326;12.370;2024-02-15T12:22:18;14.93;85.18
71436;SHT31;59251;51.326;12.370;2024-02-15T12:24:53;14.94;85.29
71436;SHT31;59251;51.326;12.370;2024-02-15T12:27:20;14.79;85.51
71436;SHT31;59251;51.326;12.370;2024-02-15T12:29:55;14.64;86.19
71436;SHT31;59251;51.326;12.370;2024-02-15T12:32:26;14.69;86.41
71436;SHT31;59251;51.326;12.370;2024-02-15T12:35:08;14.66;87.14
71436;SHT31;59251;51.326;12.370;2024-02-15T12:37:35;14.53;87.56
71436;SHT31;59251;51.326;12.370;2024-02-15T12:40:10;14.56;87.56
71436;SHT31;59251;51.326;12.370;2024-02-15T12:42:41;14.66;86.93
71436;SHT31;59251;51.326;12.370;2024-02-15T12:45:15;14.91;86.18
71436;SHT31;59251;51.326;12.370;2024-02-15T12:47:48;15.12;85.49
71436;SHT31;59251;51.326;12.370;2024-02-15T12:50:16;14.98;85.65
71436;SHT31;59251;51.326;12.370;2024-02-15T12:52:45;15.15;85.58
71436;SHT31;59251;51.326;12.370;2024-02-15T12:55:16;15.14;85.45
71436;SHT31;59251;51.326;12.370;2024-02-15T12:57:47;14.88;85.94
71436;SHT31;59251;51.326;12.370;2024-02-15T13:00:18;15.17;85.37
71436;SHT31;59251;51.326;12.370;2024-02-15T13:02:48;15.24;85.23
71436;SHT31;59251;51.326;12.370;2024-02-15T13:05:15;14.84;86.58
71436;SHT31;59251;51.326;12.370;2024-02-15T13:07:44;14.98;86.39
71436;SHT31;59251;51.326;12.370;2024-02-15T13:10:11;14.94;86.48
71436;SHT31;59251;51.326;12.370;2024-02-15T13:12:40;14.98;85.96
71436;SHT31;59251;51.326;12.370;2024-02-15T13:15:09;14.85;86.10
71436;SHT31;59251;51.326;12.370;2024-02-15T13:17:40;14.69;86.99
71436;SHT31;59251;51.326;12.370;2024-02-15T13:20:08;14.59;87.33
71436;SHT31;59251;51.326;12.370;2024-02-15T13:22:39;14.83;86.28
71436;SHT31;59251;51.326;12.370;2024-02-15T13:25:07;14.83;86.59
71436;SHT31;59251;51.326;12.370;2024-02-15T13:27:34;15.02;85.54
71436;SHT31;59251;51.326;12.370;2024-02-15T13:30:02;14.98;86.03
71436;SHT31;59251;51.326;12.370;2024-02-15T13:32:29;14.95;85.91
71436;SHT31;59251;51.326;12.370;2024-02-15T13:34:56;15.12;85.24
71436;SHT31;59251;51.326;12.370;2024-02-15T13:37:26;15.36;84.82
71436;SHT31;59251;51.326;12.370;2024-02-15T13:39:53;15.71;83.76
71436;SHT31;59251;51.326;12.370;2024-02-15T13:42:20;15.74;83.34
71436;SHT31;59251;51.326;12.370;2024-02-15T13:44:47;16.00;82.72
71436;SHT31;59251;51.326;12.370;2024-02-15T13:47:14;16.56;81.23
71436;SHT31;59251;51.326;12.370;2024-02-15T13:49:41;17.79;78.05
71436;SHT31;59251;51.326;12.370;2024-02-15T13:52:08;17.35;78.45
71436;SHT31;59251;51.326;12.370;2024-02-15T13:54:38;17.31;78.71
71436;SHT31;59251;51.326;12.370;2024-02-15T13:57:04;17.35;78.42
71436;SHT31;59251;51.326;12.370;2024-02-15T13:59:32;17.32;78.08
71436;SHT31;59251;51.326;12.370;2024-02-15T14:02:00;17.37;78.30
71436;SHT31;59251;51.326;12.370;2024-02-15T14:04:29;18.03;76.49
71436;SHT31;59251;51.326;12.370;2024-02-15T14:06:57;17.51;77.17
71436;SHT31;59251;51.326;12.370;2024-02-15T14:09:26;17.50;77.43
71436;SHT31;59251;51.326;12.370;2024-02-15T14:11:54;17.57;77.18
71436;SHT31;59251;51.326;12.370;2024-02-15T14:14:21;17.75;76.57
71436;SHT31;59251;51.326;12.370;2024-02-15T14:16:48;17.61;76.72
71436;SHT31;59251;51.326;12.370;2024-02-15T14:19:15;17.27;77.21
71436;SHT31;59251;51.326;12.370;2024-02-15T14:21:43;17.60;76.11
71436;SHT31;59251;51.326;12.370;2024-02-15T14:24:10;19.29;72.67
71436;SHT31;59251;51.326;12.370;2024-02-15T14:26:37;20.30;69.41
71436;SHT31;59251;51.326;12.370;2024-02-15T14:29:05;20.77;68.69
71436;SHT31;59251;51.326;12.370;2024-02-15T14:31:32;20.22;68.30
71436;SHT31;59251;51.326;12.370;2024-02-15T14:34:16;19.60;70.88
71436;SHT31;59251;51.326;12.370;2024-02-15T14:36:46;19.92;69.94
71436;SHT31;59251;51.326;12.370;2024-02-15T14:39:13;19.78;70.84
71436;SHT31;59251;51.326;12.370;2024-02-15T14:41:40;20.04;69.47
71436;SHT31;59251;51.326;12.370;2024-02-15T14:44:10;19.80;70.35
71436;SHT31;59251;51.326;12.370;2024-02-15T14:46:39;18.40;73.46
71436;SHT31;59251;51.326;12.370;2024-02-15T14:49:06;17.48;76.02
71436;SHT31;59251;51.326;12.370;2024-02-15T14:51:34;17.06;77.21
71436;SHT31;59251;51.326;12.370;2024-02-15T14:54:02;16.80;78.05
71436;SHT31;59251;51.326;12.370;2024-02-15T14:56:29;16.25;79.98
71436;SHT31;59251;51.326;12.370;2024-02-15T14:58:57;16.34;80.10
71436;SHT31;59251;51.326;12.370;2024-02-15T15:01:27;15.87;81.45
71436;SHT31;59251;51.326;12.370;2024-02-15T15:03:55;15.93;81.50
71436;SHT31;59251;51.326;12.370;2024-02-15T15:06:24;16.00;81.26
71436;SHT31;59251;51.326;12.370;2024-02-15T15:09:09;15.65;82.20
71436;SHT31;59251;51.326;12.370;2024-02-15T15:11:55;15.52;82.92
71436;SHT31;59251;51.326;12.370;2024-02-15T15:14:40;15.41;82.95
71436;SHT31;59251;51.326;12.370;2024-02-15T15:17:08;15.20;83.40
71436;SHT31;59251;51.326;12.370;2024-02-15T15:19:37;15.17;83.55
71436;SHT31;59251;51.326;12.370;2024-02-15T15:22:04;15.14;83.76
71436;SHT31;59251;51.326;12.370;2024-02-15T15:24:33;14.91;84.32
71436;SHT31;59251;51.326;12.370;2024-02-15T15:26:59;15.00;84.02
71436;SHT31;59251;51.326;12.370;2024-02-15T15:29:27;14.81;84.72
71436;SHT31;59251;51.326;12.370;2024-02-15T15:31:53;14.79;84.70
71436;SHT31;59251;51.326;12.370;2024-02-15T15:34:22;14.76;84.67
71436;SHT31;59251;51.326;12.370;2024-02-15T15:36:49;14.84;84.52